Time;durP1;ratioP1;P1;durP2;ratioP2;P2;SDS_P1;SDS_P2;PMS_P1;PMS_P2;Temp;Humidity;BMP_temperature;BMP_pressure;BME280_temperature;BME280_humidity;BME280_pressure;Samples;Min_cycle;Max_cycle;Signal;HPM_P1;HPM_P2
2022/11/24 00:00:25;;;;;;;19.08;7.13;;;6.70;99.90;;;;;;5028388;28;20492;-53
2022/11/24 00:02:51;;;;;;;19.77;7.10;;;6.70;99.90;;;;;;5026493;28;20095;-51
2022/11/24 00:05:16;;;;;;;17.50;7.00;;;6.70;99.90;;;;;;5030748;28;20041;-49
2022/11/24 00:07:42;;;;;;;19.52;7.00;;;6.70;99.90;;;;;;5031417;28;20037;-50
2022/11/24 00:10:08;;;;;;;20.52;6.30;;;6.60;99.90;;;;;;5029089;28;20419;-54
2022/11/24 00:12:33;;;;;;;21.00;7.15;;;6.60;99.90;;;;;;5043892;28;20395;-51
2022/11/24 00:14:59;;;;;;;20.42;6.70;;;6.50;99.90;;;;;;5027789;28;20572;-50
2022/11/24 00:17:25;;;;;;;16.90;7.00;;;6.50;99.90;;;;;;5027710;28;20053;-53
2022/11/24 00:19:50;;;;;;;21.38;6.40;;;6.60;99.90;;;;;;5027591;28;20083;-54
2022/11/24 00:22:16;;;;;;;16.83;6.80;;;6.50;99.90;;;;;;5027964;28;20042;-51
2022/11/24 00:24:42;;;;;;;19.48;6.65;;;6.50;99.90;;;;;;5024968;28;20052;-54
2022/11/24 00:27:07;;;;;;;19.52;6.72;;;6.50;99.90;;;;;;5023935;28;20450;-53
2022/11/24 00:29:33;;;;;;;23.92;6.75;;;6.40;99.90;;;;;;5022451;28;20063;-54
2022/11/24 00:32:00;;;;;;;21.20;6.60;;;6.50;99.90;;;;;;5021791;28;20115;-54
2022/11/24 00:34:26;;;;;;;20.58;6.15;;;6.40;99.90;;;;;;5021563;28;20072;-52
2022/11/24 00:36:52;;;;;;;20.95;6.72;;;6.40;99.90;;;;;;5021040;28;20041;-52
2022/11/24 00:39:17;;;;;;;23.52;5.88;;;6.40;99.90;;;;;;5022902;28;20040;-54
2022/11/24 00:41:43;;;;;;;26.60;7.15;;;6.40;99.90;;;;;;5022472;28;20053;-54
2022/11/24 00:44:09;;;;;;;19.90;6.22;;;6.40;99.90;;;;;;5021435;28;20046;-51
2022/11/24 00:46:34;;;;;;;29.48;6.50;;;6.30;99.90;;;;;;5021270;28;20135;-54
2022/11/24 00:49:00;;;;;;;25.20;6.03;;;6.30;99.90;;;;;;5022113;28;20492;-55
2022/11/24 00:51:29;;;;;;;20.50;6.53;;;6.30;99.90;;;;;;5022766;28;20045;-53
2022/11/24 00:53:55;;;;;;;25.50;7.30;;;6.30;99.90;;;;;;5020574;28;20065;-54
2022/11/24 00:56:21;;;;;;;27.65;7.43;;;6.20;99.90;;;;;;5021133;28;20075;-49
2022/11/24 00:58:47;;;;;;;20.85;6.60;;;6.20;99.90;;;;;;5023345;28;20072;-49
2022/11/24 01:01:16;;;;;;;24.20;6.43;;;6.20;99.90;;;;;;5025020;28;20073;-54
2022/11/24 01:03:42;;;;;;;19.75;6.45;;;6.30;99.90;;;;;;5022763;28;20120;-53
2022/11/24 01:06:13;;;;;;;19.58;6.25;;;6.30;99.90;;;;;;5039084;28;20060;-52
2022/11/24 01:08:40;;;;;;;17.23;5.97;;;6.30;99.90;;;;;;5026430;28;20120;-50
2022/11/24 01:11:13;;;;;;;27.30;6.70;;;6.40;99.90;;;;;;5026694;28;20038;-50
2022/11/24 01:13:40;;;;;;;29.55;5.47;;;6.30;99.90;;;;;;5027606;28;20054;-49
2022/11/24 01:16:11;;;;;;;29.65;6.57;;;6.40;99.90;;;;;;5026540;28;20092;-49
2022/11/24 01:18:37;;;;;;;26.48;6.13;;;6.40;99.90;;;;;;5042128;28;20049;-50
2022/11/24 01:21:04;;;;;;;25.48;6.53;;;6.40;99.90;;;;;;5042199;28;20061;-52
2022/11/24 01:23:29;;;;;;;18.63;5.45;;;6.50;99.90;;;;;;5025944;28;20495;-51
2022/11/24 01:25:55;;;;;;;23.52;6.30;;;6.50;99.90;;;;;;5030355;28;20056;-51
2022/11/24 01:28:20;;;;;;;22.65;6.35;;;6.40;99.90;;;;;;5019539;28;20037;-54
2022/11/24 01:30:56;;;;;;;23.35;6.18;;;6.60;99.90;;;;;;5017110;28;20089;-54
2022/11/24 01:33:22;;;;;;;23.00;5.22;;;6.60;99.90;;;;;;5017280;28;20085;-52
2022/11/24 01:35:47;;;;;;;29.02;5.72;;;6.60;99.90;;;;;;5018880;28;20049;-53
2022/11/24 01:38:13;;;;;;;24.20;5.43;;;6.60;99.90;;;;;;5017371;28;20057;-52
2022/11/24 01:40:39;;;;;;;25.98;5.47;;;6.60;99.90;;;;;;5017156;28;20052;-52
2022/11/24 01:43:15;;;;;;;21.85;5.50;;;6.60;99.90;;;;;;5017229;28;20053;-53
2022/11/24 01:45:41;;;;;;;23.80;6.03;;;6.60;99.90;;;;;;5016098;28;20055;-52
2022/11/24 01:48:15;;;;;;;28.40;6.15;;;6.60;99.90;;;;;;5017818;28;20041;-54
2022/11/24 01:50:41;;;;;;;23.60;5.40;;;6.70;99.90;;;;;;5018799;28;20650;-54
2022/11/24 01:53:09;;;;;;;24.15;5.05;;;6.70;99.90;;;;;;5030503;28;20453;-51
2022/11/24 01:55:38;;;;;;;23.63;5.13;;;6.70;99.90;;;;;;5018190;28;20403;-54
2022/11/24 01:58:17;;;;;;;21.70;4.70;;;6.70;99.90;;;;;;5025050;28;20098;-54
2022/11/24 02:00:44;;;;;;;25.08;6.20;;;6.70;99.90;;;;;;5026872;28;20044;-51
2022/11/24 02:03:18;;;;;;;26.73;5.63;;;6.70;99.90;;;;;;5027425;28;20041;-52
2022/11/24 02:06:03;;;;;;;21.77;4.95;;;6.70;99.90;;;;;;5028351;28;20057;-54
2022/11/24 02:08:37;;;;;;;24.73;6.22;;;6.70;99.90;;;;;;5028899;28;20045;-54
2022/11/24 02:11:04;;;;;;;26.17;5.35;;;6.70;99.90;;;;;;5026546;28;20087;-53
2022/11/24 02:13:32;;;;;;;25.52;5.55;;;6.70;99.90;;;;;;5026350;28;20084;-51
2022/11/24 02:15:59;;;;;;;22.65;5.28;;;6.70;99.90;;;;;;5025907;28;20065;-52
2022/11/24 02:18:24;;;;;;;22.92;5.25;;;6.60;99.90;;;;;;5025471;28;20050;-54
2022/11/24 02:20:50;;;;;;;27.48;5.13;;;6.70;99.90;;;;;;5025497;28;20049;-50
2022/11/24 02:23:30;;;;;;;25.23;5.32;;;6.70;99.90;;;;;;5026605;28;20046;-51
2022/11/24 02:26:06;;;;;;;22.60;5.20;;;6.70;99.90;;;;;;5026427;28;20418;-49
2022/11/24 02:28:32;;;;;;;21.27;4.88;;;6.70;99.90;;;;;;5021205;28;20052;-53
2022/11/24 02:30:59;;;;;;;23.80;5.10;;;6.60;99.90;;;;;;5018331;28;20667;-54
2022/11/24 02:33:25;;;;;;;24.45;4.63;;;6.70;99.90;;;;;;5019959;28;20052;-53
2022/11/24 02:35:52;;;;;;;24.55;4.75;;;6.70;99.90;;;;;;5019929;28;20100;-52
2022/11/24 02:38:18;;;;;;;23.02;4.68;;;6.60;99.90;;;;;;5017579;28;20189;-52
2022/11/24 02:40:48;;;;;;;20.67;4.82;;;6.60;99.90;;;;;;5016284;28;20403;-53
2022/11/24 02:43:19;;;;;;;26.17;5.18;;;6.60;99.90;;;;;;5016712;28;20037;-50
2022/11/24 02:45:45;;;;;;;27.20;5.63;;;6.70;99.90;;;;;;5022463;28;20049;-54
2022/11/24 02:48:12;;;;;;;20.63;4.85;;;6.70;99.90;;;;;;5023397;28;20029;-54
2022/11/24 02:50:37;;;;;;;24.27;5.15;;;6.70;99.90;;;;;;5025591;28;20175;-54
2022/11/24 02:53:03;;;;;;;25.50;5.03;;;6.70;99.90;;;;;;5026261;28;20049;-53
2022/11/24 02:55:29;;;;;;;20.73;4.50;;;6.80;99.90;;;;;;5020841;28;20046;-53
2022/11/24 02:57:54;;;;;;;25.55;4.32;;;6.80;99.90;;;;;;5019924;28;20559;-53
2022/11/24 03:00:21;;;;;;;22.65;4.32;;;6.80;99.90;;;;;;5019572;28;20053;-55
2022/11/24 03:02:46;;;;;;;24.63;5.25;;;6.90;99.90;;;;;;5020088;28;20042;-50
2022/11/24 03:05:12;;;;;;;18.23;4.00;;;6.90;99.90;;;;;;5022805;28;20034;-53
2022/11/24 03:07:38;;;;;;;20.75;4.90;;;6.90;99.90;;;;;;5024989;28;20037;-55
2022/11/24 03:10:04;;;;;;;19.10;4.53;;;6.90;99.90;;;;;;5024941;28;20554;-53
2022/11/24 03:12:30;;;;;;;21.92;4.10;;;6.90;99.90;;;;;;5025281;28;20038;-52
2022/11/24 03:14:55;;;;;;;21.65;4.78;;;7.00;99.90;;;;;;5025967;28;20547;-53
2022/11/24 03:17:21;;;;;;;20.80;3.65;;;7.00;99.90;;;;;;5026899;28;20077;-52
2022/11/24 03:19:46;;;;;;;20.48;4.15;;;7.10;99.90;;;;;;5023797;28;20073;-51
2022/11/24 03:22:13;;;;;;;21.10;4.45;;;7.10;99.90;;;;;;5021502;28;20073;-53
2022/11/24 03:24:39;;;;;;;23.90;5.30;;;7.10;99.90;;;;;;5028813;28;20503;-54
2022/11/24 03:27:05;;;;;;;16.88;4.30;;;7.20;99.90;;;;;;5018670;28;20041;-52
2022/11/24 03:29:30;;;;;;;17.13;3.80;;;7.20;99.90;;;;;;5028682;28;20467;-50
2022/11/24 03:31:57;;;;;;;22.05;4.90;;;7.20;99.90;;;;;;5029282;28;20049;-51
2022/11/24 03:34:23;;;;;;;20.33;3.70;;;7.20;99.90;;;;;;5031151;28;20051;-54
2022/11/24 03:36:48;;;;;;;20.05;3.78;;;7.20;99.90;;;;;;5030084;28;20085;-54
2022/11/24 03:39:14;;;;;;;23.25;4.43;;;7.30;99.90;;;;;;5028187;28;20092;-54
2022/11/24 03:41:40;;;;;;;20.42;4.22;;;7.20;99.90;;;;;;5029256;28;20444;-55
2022/11/24 03:44:06;;;;;;;20.27;4.20;;;7.20;99.90;;;;;;5023656;28;20109;-55
2022/11/24 03:46:32;;;;;;;20.40;4.35;;;7.20;99.90;;;;;;5028032;28;20037;-52
2022/11/24 03:48:57;;;;;;;19.63;4.18;;;7.20;99.90;;;;;;5027071;28;20315;-53
2022/11/24 03:51:23;;;;;;;19.55;3.50;;;7.10;99.90;;;;;;5023076;28;20399;-50
2022/11/24 03:53:49;;;;;;;22.35;4.47;;;7.00;99.90;;;;;;5021921;28;20505;-52
2022/11/24 03:56:14;;;;;;;20.35;3.70;;;7.00;99.90;;;;;;5027385;28;20037;-55
2022/11/24 03:58:40;;;;;;;24.48;4.53;;;6.90;99.90;;;;;;5027973;28;20116;-53
2022/11/24 04:01:06;;;;;;;20.55;4.30;;;6.90;99.90;;;;;;5029207;28;20041;-54
2022/11/24 04:03:31;;;;;;;19.65;4.50;;;6.80;99.90;;;;;;5028161;28;20423;-52
2022/11/24 04:05:57;;;;;;;21.00;4.22;;;6.70;99.90;;;;;;5028123;28;20034;-52
2022/11/24 04:08:22;;;;;;;18.83;4.13;;;6.70;99.90;;;;;;5030187;28;20068;-50
2022/11/24 04:10:50;;;;;;;20.80;4.40;;;6.80;99.90;;;;;;5027506;28;20045;-53
2022/11/24 04:13:18;;;;;;;20.00;4.25;;;6.80;99.90;;;;;;5022283;28;20061;-50
2022/11/24 04:15:44;;;;;;;17.40;3.70;;;6.70;99.90;;;;;;5023497;28;20099;-53
2022/11/24 04:18:11;;;;;;;18.15;4.60;;;6.80;99.90;;;;;;5021496;28;20060;-54
2022/11/24 04:20:36;;;;;;;21.63;4.22;;;6.80;99.90;;;;;;5022967;28;20048;-55
2022/11/24 04:23:03;;;;;;;19.27;4.50;;;6.80;99.90;;;;;;5022908;28;20780;-54
2022/11/24 04:25:29;;;;;;;20.45;4.05;;;6.80;99.90;;;;;;5024400;28;20049;-54
2022/11/24 04:27:55;;;;;;;19.35;3.45;;;6.90;99.90;;;;;;5022272;28;20033;-54
2022/11/24 04:30:23;;;;;;;17.27;3.50;;;6.90;99.90;;;;;;5019764;28;20060;-52
2022/11/24 04:32:49;;;;;;;16.13;3.65;;;6.90;99.90;;;;;;5023551;28;20235;-55
2022/11/24 04:35:15;;;;;;;18.25;3.78;;;7.00;99.90;;;;;;5022980;28;20535;-54
2022/11/24 04:37:40;;;;;;;19.20;3.47;;;7.00;99.90;;;;;;5020782;28;20091;-53
2022/11/24 04:40:08;;;;;;;27.30;4.03;;;7.10;99.90;;;;;;5023066;28;20041;-54
2022/11/24 04:42:34;;;;;;;22.10;3.75;;;7.10;99.90;;;;;;5020464;28;20059;-52
2022/11/24 04:45:00;;;;;;;18.45;3.60;;;7.10;99.90;;;;;;5021798;28;20045;-51
2022/11/24 04:47:25;;;;;;;20.85;3.85;;;7.10;99.90;;;;;;5023217;28;20387;-53
2022/11/24 04:49:51;;;;;;;22.23;4.47;;;7.10;99.90;;;;;;5022487;28;20094;-55
2022/11/24 04:52:18;;;;;;;15.18;3.92;;;7.10;99.90;;;;;;5024756;28;20044;-53
2022/11/24 04:54:45;;;;;;;23.67;3.78;;;7.10;99.90;;;;;;5021846;28;20073;-51
2022/11/24 04:57:22;;;;;;;18.52;3.58;;;7.10;99.90;;;;;;5020656;28;20091;-54
2022/11/24 04:59:49;;;;;;;14.77;3.28;;;7.00;99.90;;;;;;5020264;28;20414;-51
2022/11/24 05:02:15;;;;;;;14.18;3.58;;;7.00;99.90;;;;;;5020241;28;20111;-53
2022/11/24 05:04:41;;;;;;;23.92;4.85;;;7.00;99.90;;;;;;5022973;28;20567;-52
2022/11/24 05:07:13;;;;;;;18.83;3.88;;;7.10;99.90;;;;;;5023278;28;20049;-52
2022/11/24 05:10:33;;;;;;;15.70;3.78;;;7.00;99.90;;;;;;5019624;28;20050;-52
2022/11/24 05:12:29;;;;;;;24.73;4.32;;;7.00;99.90;;;;;;5018832;28;20046;-55
2022/11/24 05:14:58;;;;;;;22.33;3.70;;;7.00;99.90;;;;;;5019680;28;20858;-52
2022/11/24 05:17:28;;;;;;;15.55;3.45;;;6.90;99.90;;;;;;5023596;28;20098;-54
2022/11/24 05:19:53;;;;;;;20.77;4.07;;;6.90;99.90;;;;;;5017702;28;20426;-52
2022/11/24 05:22:19;;;;;;;26.80;4.40;;;6.80;99.90;;;;;;5018976;28;20046;-52
2022/11/24 05:24:45;;;;;;;20.35;4.47;;;6.90;99.90;;;;;;5024702;28;20044;-54
2022/11/24 05:27:10;;;;;;;19.55;3.80;;;6.90;99.90;;;;;;5026461;28;20083;-52
2022/11/24 05:29:36;;;;;;;22.05;4.00;;;6.80;99.90;;;;;;5026038;28;20391;-52
2022/11/24 05:32:01;;;;;;;28.98;3.90;;;6.80;99.90;;;;;;5027085;28;20049;-51
2022/11/24 05:34:27;;;;;;;22.02;3.38;;;6.90;99.90;;;;;;5027058;28;20076;-55
2022/11/24 05:36:53;;;;;;;22.90;3.67;;;6.90;99.90;;;;;;5027282;28;20518;-54
2022/11/24 05:39:19;;;;;;;24.70;4.68;;;7.00;99.90;;;;;;5026860;28;20666;-53
2022/11/24 05:41:45;;;;;;;20.90;4.00;;;7.00;99.90;;;;;;5025268;28;20041;-52
2022/11/24 05:44:10;;;;;;;18.58;3.75;;;7.10;99.90;;;;;;5023049;28;20095;-53
2022/11/24 05:46:36;;;;;;;20.40;3.92;;;7.00;99.90;;;;;;5021444;28;20041;-53
2022/11/24 05:49:02;;;;;;;16.52;4.70;;;7.00;99.90;;;;;;5027061;28;20041;-50
2022/11/24 05:51:29;;;;;;;21.17;3.90;;;7.10;99.90;;;;;;5019504;28;20041;-54
2022/11/24 05:53:54;;;;;;;22.05;4.03;;;7.00;99.90;;;;;;5016433;28;20124;-52
2022/11/24 05:56:20;;;;;;;27.35;4.35;;;7.10;99.90;;;;;;5019104;28;20405;-52
2022/11/24 05:58:46;;;;;;;19.00;4.15;;;7.10;99.90;;;;;;5024920;28;20041;-52
2022/11/24 06:01:11;;;;;;;19.05;3.75;;;7.00;99.90;;;;;;5021342;28;20169;-54
2022/11/24 06:03:37;;;;;;;17.85;4.13;;;7.10;99.90;;;;;;5022356;28;20449;-55
2022/11/24 06:06:03;;;;;;;18.83;4.63;;;7.10;99.90;;;;;;5018518;28;20065;-55
2022/11/24 06:08:29;;;;;;;19.13;4.20;;;7.10;99.90;;;;;;5019346;28;20068;-50
2022/11/24 06:11:15;;;;;;;21.58;4.43;;;7.10;99.90;;;;;;5015590;28;20045;-54
2022/11/24 06:13:42;;;;;;;21.55;3.85;;;7.10;99.90;;;;;;5013946;28;20085;-52
2022/11/24 06:16:07;;;;;;;24.08;4.20;;;7.20;99.90;;;;;;5015211;28;20048;-54
2022/11/24 06:18:33;;;;;;;18.60;4.10;;;7.10;99.90;;;;;;5019465;28;20033;-54
2022/11/24 06:21:01;;;;;;;23.08;4.05;;;7.10;99.90;;;;;;5023175;28;20037;-52
2022/11/24 06:23:27;;;;;;;23.33;4.72;;;7.10;99.90;;;;;;5022271;28;20136;-50
2022/11/24 06:25:53;;;;;;;19.17;3.92;;;7.20;99.90;;;;;;5024127;28;20138;-50
2022/11/24 06:28:18;;;;;;;19.40;4.03;;;7.20;99.90;;;;;;5025932;28;20076;-50
2022/11/24 06:30:44;;;;;;;17.35;4.07;;;7.20;99.90;;;;;;5032158;28;20103;-49
2022/11/24 06:33:10;;;;;;;24.33;4.38;;;7.20;99.90;;;;;;5028444;28;20501;-54
2022/11/24 06:35:35;;;;;;;21.25;4.32;;;7.20;99.90;;;;;;5027854;28;20051;-50
2022/11/24 06:38:01;;;;;;;20.25;4.30;;;7.20;99.90;;;;;;5029472;28;20036;-50
2022/11/24 06:40:27;;;;;;;26.52;4.38;;;7.20;99.90;;;;;;5028075;28;20368;-50
2022/11/24 06:42:52;;;;;;;24.38;3.65;;;7.30;99.90;;;;;;5028599;28;20049;-50
2022/11/24 06:45:18;;;;;;;25.27;4.30;;;7.30;99.90;;;;;;5024528;28;20049;-51
2022/11/24 06:47:43;;;;;;;21.45;4.53;;;7.30;99.90;;;;;;5023790;28;20419;-50
2022/11/24 06:50:09;;;;;;;29.05;5.90;;;7.30;99.90;;;;;;5022572;28;20049;-51
2022/11/24 06:52:35;;;;;;;19.00;4.25;;;7.40;99.90;;;;;;5023854;28;20496;-55
2022/11/24 06:55:00;;;;;;;25.67;5.28;;;7.40;99.90;;;;;;5024915;28;20045;-50
2022/11/24 06:57:29;;;;;;;27.00;5.15;;;7.40;99.90;;;;;;5024392;28;20107;-50
2022/11/24 06:59:57;;;;;;;22.27;4.47;;;7.30;99.90;;;;;;5024899;28;20128;-53
2022/11/24 07:02:23;;;;;;;22.30;4.83;;;7.30;99.90;;;;;;5024990;28;20045;-51
2022/11/24 07:04:48;;;;;;;19.25;3.97;;;7.30;99.90;;;;;;5025034;28;20574;-50
2022/11/24 07:07:14;;;;;;;18.80;4.28;;;7.30;99.90;;;;;;5022461;28;20134;-53
2022/11/24 07:09:39;;;;;;;17.85;4.50;;;7.30;99.90;;;;;;5024471;28;20407;-54
2022/11/24 07:12:05;;;;;;;24.55;4.85;;;7.30;99.90;;;;;;5029117;28;20037;-55
2022/11/24 07:14:31;;;;;;;21.35;4.60;;;7.30;99.90;;;;;;5028222;28;20073;-55
2022/11/24 07:16:56;;;;;;;28.23;4.90;;;7.20;99.90;;;;;;5029180;28;20492;-52
2022/11/24 07:19:22;;;;;;;19.25;4.35;;;7.20;99.90;;;;;;5029257;28;20046;-52
2022/11/24 07:21:48;;;;;;;17.48;4.30;;;7.20;99.90;;;;;;5036973;28;20053;-52
2022/11/24 07:24:13;;;;;;;22.30;4.53;;;7.20;99.90;;;;;;5038169;28;20399;-56
2022/11/24 07:26:39;;;;;;;16.55;4.00;;;7.20;99.90;;;;;;5035275;28;20089;-55
2022/11/24 07:29:05;;;;;;;18.35;4.28;;;7.10;99.90;;;;;;5035013;28;20571;-55
2022/11/24 07:31:30;;;;;;;21.95;4.75;;;7.20;99.90;;;;;;5029638;28;20049;-55
2022/11/24 07:33:56;;;;;;;17.23;4.30;;;7.20;99.90;;;;;;5034232;28;20052;-52
2022/11/24 07:36:23;;;;;;;18.08;4.53;;;7.30;99.90;;;;;;5031146;28;20060;-51
2022/11/24 07:38:49;;;;;;;14.45;4.53;;;7.30;99.90;;;;;;5030815;28;20072;-54
2022/11/24 07:41:18;;;;;;;16.77;4.68;;;7.30;99.90;;;;;;5027370;28;20138;-54
2022/11/24 07:43:44;;;;;;;18.27;5.10;;;7.40;99.90;;;;;;5024573;28;20568;-51
2022/11/24 07:46:15;;;;;;;15.82;4.50;;;7.40;99.90;;;;;;5024186;28;20038;-50
2022/11/24 07:48:41;;;;;;;19.42;5.13;;;7.40;99.90;;;;;;5024879;28;22087;-54
2022/11/24 07:51:07;;;;;;;16.98;4.45;;;7.50;99.90;;;;;;5019268;28;20442;-55
2022/11/24 07:53:34;;;;;;;18.90;4.80;;;7.50;99.90;;;;;;5020239;28;20060;-54
2022/11/24 07:56:01;;;;;;;17.05;4.45;;;7.60;99.90;;;;;;5020719;28;20045;-53
2022/11/24 07:58:28;;;;;;;17.83;4.15;;;7.60;99.90;;;;;;5020820;28;20042;-53
2022/11/24 08:00:54;;;;;;;13.60;4.32;;;7.60;99.90;;;;;;5025337;28;20128;-53
2022/11/24 08:03:20;;;;;;;19.25;4.35;;;7.60;99.90;;;;;;5023871;28;20554;-52
2022/11/24 08:05:59;;;;;;;21.10;4.13;;;7.60;99.90;;;;;;5025736;28;20052;-54
2022/11/24 08:08:25;;;;;;;20.48;4.43;;;7.60;99.90;;;;;;5022629;28;20521;-52
2022/11/24 08:10:51;;;;;;;17.83;4.50;;;7.60;99.90;;;;;;5024034;28;20487;-52
2022/11/24 08:13:18;;;;;;;16.50;4.10;;;7.60;99.90;;;;;;5022158;28;20049;-53
2022/11/24 08:15:44;;;;;;;21.50;4.95;;;7.60;99.90;;;;;;5019032;28;20099;-52
2022/11/24 08:18:10;;;;;;;21.25;4.07;;;7.50;99.90;;;;;;5019433;28;20050;-52
2022/11/24 08:20:36;;;;;;;18.40;4.57;;;7.50;99.90;;;;;;5022357;28;20095;-54
2022/11/24 08:23:02;;;;;;;14.20;4.43;;;7.50;99.90;;;;;;5020767;28;20041;-55
2022/11/24 08:25:31;;;;;;;18.08;4.75;;;7.50;99.90;;;;;;5019268;28;21368;-54
2022/11/24 08:28:01;;;;;;;17.67;4.32;;;7.40;99.90;;;;;;5016244;28;20052;-52
2022/11/24 08:30:27;;;;;;;18.85;4.65;;;7.40;99.90;;;;;;5020566;28;20136;-53
2022/11/24 08:32:53;;;;;;;16.08;4.30;;;7.40;99.90;;;;;;5020694;28;20037;-53
2022/11/24 08:35:19;;;;;;;18.20;4.60;;;7.40;99.90;;;;;;5022428;28;20833;-53
2022/11/24 08:37:44;;;;;;;13.07;4.03;;;7.40;99.90;;;;;;5025708;28;20036;-50
2022/11/24 08:40:11;;;;;;;18.27;4.45;;;7.50;99.90;;;;;;5027490;28;20095;-53
2022/11/24 08:42:36;;;;;;;15.20;4.85;;;7.60;99.90;;;;;;5026788;28;20122;-51
2022/11/24 08:45:02;;;;;;;15.30;4.47;;;7.60;99.90;;;;;;5028269;28;20091;-55
2022/11/24 08:47:28;;;;;;;17.17;4.15;;;7.70;99.90;;;;;;5020650;28;20052;-53
2022/11/24 08:49:53;;;;;;;12.13;3.97;;;7.70;99.90;;;;;;5028113;28;20041;-54
2022/11/24 08:52:19;;;;;;;18.60;4.35;;;7.70;99.90;;;;;;5032907;28;20084;-55
2022/11/24 08:54:45;;;;;;;12.10;4.13;;;7.70;99.90;;;;;;5064018;22;20041;-55
2022/11/24 08:57:12;;;;;;;14.50;4.18;;;7.60;99.90;;;;;;5047212;28;20073;-51
2022/11/24 08:59:38;;;;;;;11.75;3.45;;;7.60;99.90;;;;;;5038852;28;20044;-53
2022/11/24 09:02:04;;;;;;;14.32;4.20;;;7.60;99.90;;;;;;5042329;28;20052;-50
2022/11/24 09:04:30;;;;;;;9.45;3.70;;;7.60;99.90;;;;;;5053348;28;20049;-51
2022/11/24 09:06:56;;;;;;;12.63;3.90;;;7.70;99.90;;;;;;5047490;28;20201;-50
2022/11/24 09:09:22;;;;;;;13.50;3.75;;;7.70;99.90;;;;;;5053862;28;20049;-51
2022/11/24 09:11:48;;;;;;;11.38;3.75;;;7.70;99.90;;;;;;5053100;28;20052;-51
2022/11/24 09:14:14;;;;;;;10.73;3.95;;;7.80;99.90;;;;;;5045161;28;20532;-53
2022/11/24 09:16:40;;;;;;;10.55;3.65;;;7.90;99.90;;;;;;5033336;28;20037;-56
2022/11/24 09:19:09;;;;;;;12.50;3.83;;;7.90;99.90;;;;;;5071433;22;20057;-52
2022/11/24 09:21:39;;;;;;;10.23;3.78;;;8.00;99.90;;;;;;5067991;28;20047;-53
2022/11/24 09:24:06;;;;;;;10.88;3.78;;;8.00;99.90;;;;;;5067143;28;20036;-52
2022/11/24 09:26:34;;;;;;;6.22;3.60;;;8.00;99.90;;;;;;5071990;28;20041;-53
2022/11/24 09:29:02;;;;;;;9.77;3.67;;;8.10;99.90;;;;;;5070751;28;20631;-50
2022/11/24 09:31:33;;;;;;;9.13;3.55;;;8.20;99.90;;;;;;5070835;28;20032;-54
2022/11/24 09:34:00;;;;;;;9.48;3.95;;;8.20;99.90;;;;;;5070061;28;20154;-52
2022/11/24 09:36:27;;;;;;;7.85;3.70;;;8.20;99.90;;;;;;5066714;28;20043;-50
2022/11/24 09:38:52;;;;;;;7.35;3.60;;;8.30;99.90;;;;;;5069979;28;20036;-50
2022/11/24 09:41:21;;;;;;;9.73;4.05;;;8.30;99.90;;;;;;5064888;28;20048;-53
2022/11/24 09:44:05;;;;;;;11.20;3.83;;;8.30;99.90;;;;;;5066273;28;20476;-54
2022/11/24 09:46:43;;;;;;;9.65;4.25;;;8.40;99.90;;;;;;5068807;28;20040;-54
2022/11/24 09:49:15;;;;;;;8.35;4.40;;;8.40;99.90;;;;;;5067711;28;20045;-54
2022/11/24 09:51:45;;;;;;;8.73;4.25;;;8.60;99.90;;;;;;5074267;28;20051;-54
2022/11/24 09:54:22;;;;;;;9.00;4.70;;;8.50;99.90;;;;;;5067631;28;20505;-50
2022/11/24 09:56:50;;;;;;;9.15;4.35;;;8.50;99.90;;;;;;5063738;28;20511;-54
2022/11/24 09:59:22;;;;;;;8.52;4.70;;;8.50;99.90;;;;;;5066127;28;20090;-53
2022/11/24 10:01:50;;;;;;;8.77;4.13;;;8.60;99.90;;;;;;5060786;28;20044;-52
2022/11/24 10:04:26;;;;;;;9.57;4.50;;;8.80;99.90;;;;;;5071869;28;20037;-53
2022/11/24 10:07:11;;;;;;;6.80;4.32;;;8.70;99.90;;;;;;5069128;28;20115;-53
2022/11/24 10:10:02;;;;;;;8.25;4.70;;;8.80;99.90;;;;;;5065899;28;20129;-53
2022/11/24 10:12:55;;;;;;;10.82;4.90;;;9.00;99.90;;;;;;5063073;28;20041;-50
2022/11/24 10:15:39;;;;;;;8.95;5.15;;;;;;;;;;5063220;28;20048;-50
2022/11/24 10:18:05;;;;;;;8.02;5.72;;;9.20;99.90;;;;;;5053295;28;20166;-49
2022/11/24 10:20:55;;;;;;;7.40;5.45;;;9.30;99.90;;;;;;5070234;28;20139;-49
2022/11/24 10:23:33;;;;;;;10.70;6.38;;;9.40;99.90;;;;;;5054571;28;20514;-53
2022/11/24 10:26:00;;;;;;;10.80;6.45;;;;;;;;;;5070663;28;20417;-53
2022/11/24 10:28:33;;;;;;;9.40;6.03;;;;;;;;;;5069637;28;20416;-53
2022/11/24 10:31:17;;;;;;;7.28;6.47;;;9.70;99.90;;;;;;5067383;28;20059;-54
2022/11/24 10:33:43;;;;;;;11.32;5.88;;;9.60;99.90;;;;;;5071470;28;20055;-50
2022/11/24 10:36:17;;;;;;;10.00;6.45;;;9.60;99.90;;;;;;5070548;28;20355;-51
2022/11/24 10:39:16;;;;;;;10.77;6.38;;;9.60;99.90;;;;;;5073138;28;20044;-52
2022/11/24 10:41:55;;;;;;;10.85;6.72;;;9.70;99.90;;;;;;4968418;28;20405;-53
2022/11/24 10:44:21;;;;;;;8.75;6.57;;;;;;;;;;4970176;28;20101;-52
2022/11/24 10:46:47;;;;;;;10.50;6.32;;;9.60;99.90;;;;;;4970187;28;20390;-51
2022/11/24 10:49:25;;;;;;;7.65;5.97;;;9.80;99.90;;;;;;4971864;28;20105;-55
2022/11/24 10:52:06;;;;;;;11.43;6.97;;;10.00;99.90;;;;;;4966812;28;20086;-55
2022/11/24 10:54:34;;;;;;;11.48;7.13;;;10.00;99.90;;;;;;4965654;28;20085;-54
2022/11/24 10:57:00;;;;;;;;;;;10.20;99.90;;;;;;4970583;28;20050;-52
2022/11/24 10:59:38;;;;;;;9.68;6.82;;;10.20;99.90;;;;;;4971257;28;19976;-53
2022/11/24 11:02:25;;;;;;;9.35;7.20;;;10.40;99.90;;;;;;4970332;28;20050;-55
2022/11/24 11:04:51;;;;;;;10.25;7.22;;;10.50;99.90;;;;;;4969097;28;20042;-50
2022/11/24 11:07:19;;;;;;;9.05;6.80;;;10.50;99.90;;;;;;4974475;28;20043;-54
2022/11/24 11:09:46;;;;;;;10.23;7.50;;;10.60;99.90;;;;;;4975488;28;20046;-54
2022/11/24 11:12:29;;;;;;;13.43;7.45;;;10.60;99.90;;;;;;4970773;28;20051;-53
2022/11/24 11:14:54;;;;;;;12.43;7.47;;;10.60;99.90;;;;;;4970140;28;20035;-52
2022/11/24 11:17:37;;;;;;;8.23;6.45;;;10.60;99.90;;;;;;4993327;28;20048;-52
2022/11/24 11:20:25;;;;;;;8.70;6.90;;;10.50;99.90;;;;;;5053920;28;20045;-50
2022/11/24 11:22:52;;;;;;;10.43;6.93;;;10.50;99.90;;;;;;5069246;28;20044;-51
2022/11/24 11:25:46;;;;;;;10.45;7.82;;;10.60;99.90;;;;;;5058543;28;20115;-51
2022/11/24 11:28:27;;;;;;;10.55;7.28;;;10.50;99.90;;;;;;5067344;28;20408;-52
2022/11/24 11:31:01;;;;;;;13.18;7.65;;;10.40;99.90;;;;;;5074100;28;20029;-51
2022/11/24 11:33:29;;;;;;;10.80;7.40;;;10.40;99.90;;;;;;5066999;28;20086;-50
2022/11/24 11:35:57;;;;;;;10.35;7.40;;;10.40;99.90;;;;;;5074518;28;20461;-51
2022/11/24 11:38:25;;;;;;;10.45;7.38;;;10.40;99.90;;;;;;5066807;28;20135;-52
2022/11/24 11:40:51;;;;;;;;;;;10.40;99.90;;;;;;5063250;28;20068;-53
2022/11/24 11:43:26;;;;;;;9.13;7.78;;;10.50;99.90;;;;;;5072404;28;20382;-54
2022/11/24 11:46:06;;;;;;;12.73;7.93;;;10.50;99.90;;;;;;5090237;22;20079;-53
2022/11/24 11:48:35;;;;;;;9.80;7.32;;;10.50;99.90;;;;;;5048505;28;20052;-53
2022/11/24 11:51:03;;;;;;;13.48;8.55;;;10.60;99.90;;;;;;5072185;28;20129;-54
2022/11/24 11:54:00;;;;;;;13.10;7.75;;;10.60;99.90;;;;;;5068817;28;20482;-53
2022/11/24 11:56:33;;;;;;;13.00;8.23;;;10.60;99.90;;;;;;5033599;28;20055;-53
2022/11/24 11:58:58;;;;;;;14.43;8.30;;;10.70;99.90;;;;;;5071419;28;20123;-52
2022/11/24 12:01:32;;;;;;;15.25;7.32;;;10.70;99.90;;;;;;5072243;28;20128;-53
2022/11/24 12:04:32;;;;;;;12.18;7.50;;;10.70;99.90;;;;;;5070076;28;20059;-53
2022/11/24 12:07:05;;;;;;;14.43;7.80;;;10.80;99.90;;;;;;5073175;28;20129;-55
2022/11/24 12:09:48;;;;;;;13.55;7.82;;;10.80;99.90;;;;;;5062103;28;20045;-56
2022/11/24 12:12:35;;;;;;;19.25;7.47;;;10.90;99.90;;;;;;5066168;28;20045;-53
2022/11/24 12:15:18;;;;;;;14.32;7.45;;;10.90;99.90;;;;;;5072658;28;20144;-55
2022/11/24 12:17:54;;;;;;;10.13;7.00;;;10.80;99.90;;;;;;5061216;28;20464;-53
2022/11/24 12:20:36;;;;;;;14.95;7.10;;;10.80;99.90;;;;;;5072875;28;20128;-53
2022/11/24 12:23:18;;;;;;;14.07;7.63;;;10.70;99.90;;;;;;5069400;28;20105;-63
2022/11/24 12:26:11;;;;;;;12.65;6.90;;;10.60;99.90;;;;;;5065473;28;20161;-62
2022/11/24 12:28:56;;;;;;;12.27;6.72;;;10.60;99.90;;;;;;5072719;28;20048;-60
2022/11/24 12:31:40;;;;;;;12.20;7.68;;;10.60;99.90;;;;;;5067034;28;20047;-59
2022/11/24 12:34:37;;;;;;;13.57;7.28;;;10.60;99.90;;;;;;5072134;28;20076;-61
2022/11/24 12:37:38;;;;;;;15.40;6.68;;;10.70;99.90;;;;;;5068333;28;20121;-60
2022/11/24 12:40:13;;;;;;;16.10;6.88;;;10.70;99.90;;;;;;5070500;28;20123;-60
2022/11/24 12:43:02;;;;;;;13.18;6.65;;;10.80;99.90;;;;;;5042855;28;20499;-61
2022/11/24 12:46:05;;;;;;;11.02;5.90;;;10.80;99.90;;;;;;5066198;28;20467;-61
2022/11/24 12:48:40;;;;;;;15.85;6.43;;;10.80;99.90;;;;;;5013263;28;20445;-61
2022/11/24 12:51:14;;;;;;;17.20;6.97;;;10.80;99.90;;;;;;5071913;28;20539;-61
2022/11/24 12:53:42;;;;;;;16.10;5.90;;;10.70;99.90;;;;;;5063827;28;20041;-53
2022/11/24 12:56:11;;;;;;;14.27;5.80;;;10.70;99.90;;;;;;5070464;28;20054;-52
2022/11/24 12:59:15;;;;;;;13.80;5.90;;;10.70;99.90;;;;;;5068535;28;20041;-53